Time;durP1;ratioP1;P1;durP2;ratioP2;P2;SDS_P1;SDS_P2;PMS_P1;PMS_P2;Temp;Humidity;BMP_temperature;BMP_pressure;BME280_temperature;BME280_humidity;BME280_pressure;Samples;Min_cycle;Max_cycle;Signal;HPM_P1;HPM_P2
2021/07/10 00:02:22;;;;;;;3.99;3.66;;;;;;;15.12;87.52;99677.25;2016815;78;185951;-82
2021/07/10 00:05:25;;;;;;;3.99;3.64;;;;;;;15.10;87.59;99673.81;2019331;80;20239;-82
2021/07/10 00:08:28;;;;;;;4.85;3.89;;;;;;;15.06;87.48;99670.38;2023225;80;20157;-82
2021/07/10 00:11:31;;;;;;;4.61;3.66;;;;;;;15.03;87.37;99667.81;2024931;80;20189;-83
2021/07/10 00:14:35;;;;;;;4.35;3.75;;;;;;;15.01;87.24;99668.72;2023975;80;20198;-81
2021/07/10 00:17:38;;;;;;;4.95;3.76;;;;;;;14.97;87.16;99667.06;2014553;78;183463;-83
2021/07/10 00:20:41;;;;;;;8.04;3.49;;;;;;;14.95;87.19;99663.63;2024855;80;20210;-82
2021/07/10 00:23:44;;;;;;;6.89;3.95;;;;;;;14.91;87.01;99664.56;2020996;80;20173;-81
2021/07/10 00:26:47;;;;;;;8.50;3.55;;;;;;;14.89;87.14;99663.72;2021548;80;20161;-81
2021/07/10 00:29:50;;;;;;;4.79;4.07;;;;;;;14.84;87.38;99668.16;2020044;80;20196;-81
2021/07/10 00:32:53;;;;;;;4.18;3.70;;;;;;;14.80;87.43;99665.59;2016867;78;119926;-82
2021/07/10 00:35:57;;;;;;;9.56;4.03;;;;;;;14.74;87.29;99660.50;2018526;80;20217;-80
2021/07/10 00:39:00;;;;;;;8.45;3.71;;;;;;;14.71;87.43;99660.53;2018130;80;20153;-81
2021/07/10 00:42:03;;;;;;;4.50;3.65;;;;;;;14.67;87.41;99655.38;2020933;80;20197;-81
2021/07/10 00:45:09;;;;;;;7.76;4.85;;;;;;;14.64;87.25;99650.22;2020199;80;20202;-81
2021/07/10 00:48:12;;;;;;;4.95;4.54;;;;;;;14.58;87.14;99648.56;2014972;78;208563;-80
2021/07/10 00:51:17;;;;;;;7.30;5.06;;;;;;;14.58;87.11;99652.94;2015980;80;20280;-80
2021/07/10 00:54:20;;;;;;;8.52;5.29;;;;;;;14.54;87.13;99649.47;2017330;80;20176;-80
2021/07/10 00:57:24;;;;;;;5.18;4.70;;;;;;;14.48;87.23;99650.47;2019903;80;20199;-81
2021/07/10 01:00:26;;;;;;;5.76;3.83;;;;;;;14.47;87.34;99647.88;2016606;78;162459;-81
2021/07/10 01:03:32;;;;;;;6.43;4.07;;;;;;;14.43;87.27;99641.84;2017864;80;20245;-81
2021/07/10 01:06:39;;;;;;;6.10;3.81;;;;;;;14.40;87.00;99643.59;2018337;80;20169;-81
2021/07/10 01:09:42;;;;;;;4.36;3.70;;;;;;;14.34;86.95;99634.09;2018800;80;20227;-81
2021/07/10 01:12:50;;;;;;;4.53;3.59;;;;;;;14.30;87.15;99631.56;2019325;80;20389;-81
2021/07/10 01:15:53;;;;;;;3.83;3.47;;;;;;;14.24;87.46;99635.16;2017889;80;20188;-81
2021/07/10 01:18:56;;;;;;;3.83;3.54;;;;;;;14.22;87.54;99629.09;2022793;78;174650;-82
2021/07/10 01:21:59;;;;;;;4.49;3.34;;;;;;;14.18;87.34;99628.28;2022950;80;20169;-81
2021/07/10 01:25:04;;;;;;;5.88;3.92;;;;;;;14.17;87.35;99633.50;2022542;80;20192;-81
2021/07/10 01:28:08;;;;;;;4.79;4.16;;;;;;;14.15;87.62;99628.28;2021541;80;20185;-81
2021/07/10 01:31:11;;;;;;;6.95;4.55;;;;;;;14.12;87.82;99627.50;2021641;80;20263;-80
2021/07/10 01:34:14;;;;;;;6.71;4.63;;;;;;;14.09;87.65;99620.56;2015030;78;177036;-81
2021/07/10 01:37:17;;;;;;;6.64;4.93;;;;;;;14.04;87.76;99614.56;2016940;80;20255;-80
2021/07/10 01:40:22;;;;;;;9.04;4.61;;;;;;;13.98;87.87;99604.19;2016613;80;20191;-80
2021/07/10 01:43:25;;;;;;;7.82;4.56;;;;;;;13.96;87.88;99600.75;2017357;80;20189;-81
2021/07/10 01:46:27;;;;;;;4.82;4.43;;;;;;;13.93;87.69;99599.94;2022289;77;22621;-81
2021/07/10 01:49:31;;;;;;;6.71;4.19;;;;;;;13.90;87.50;99603.44;2024408;80;20188;-81
2021/07/10 01:52:35;;;;;;;4.80;4.01;;;;;;;13.87;87.38;99591.31;2024805;80;20261;-81
2021/07/10 01:55:38;;;;;;;3.99;3.69;;;;;;;13.84;87.35;99593.97;2023951;80;20189;-82
2021/07/10 01:58:41;;;;;;;8.96;3.45;;;;;;;13.81;87.42;99590.50;2029754;80;20190;-81
2021/07/10 02:01:48;;;;;;;5.53;4.16;;;;;;;13.75;87.53;99596.69;2012462;80;1238226;-82
2021/07/10 02:04:52;;;;;;;7.30;3.59;;;;;;;13.69;87.63;99596.78;2024305;80;20180;-81
2021/07/10 02:08:00;;;;;;;4.18;3.74;;;;;;;13.66;87.70;99593.38;2027918;80;20180;-82
2021/07/10 02:11:02;;;;;;;3.63;3.39;;;;;;;13.64;87.54;99582.06;2023526;80;20184;-80
2021/07/10 02:14:05;;;;;;;3.72;3.35;;;;;;;13.61;87.83;99580.34;2024745;80;20241;-81
2021/07/10 02:17:08;;;;;;;9.09;4.16;;;;;;;13.58;88.05;99577.78;2020092;77;24167;-80
2021/07/10 02:20:16;;;;;;;5.78;3.96;;;;;;;13.54;88.23;99573.50;2020879;80;20180;-81
2021/07/10 02:23:18;;;;;;;4.80;4.34;;;;;;;13.52;88.43;99565.72;2021498;80;20234;-81
2021/07/10 02:26:21;;;;;;;4.94;4.07;;;;;;;13.50;88.28;99572.69;2020676;80;20189;-80
2021/07/10 02:29:24;;;;;;;4.59;4.22;;;;;;;13.48;88.16;99565.78;2022470;80;20172;-80
2021/07/10 02:32:26;;;;;;;4.90;4.60;;;;;;;13.43;88.30;99560.59;2023082;78;34721;-80
2021/07/10 02:35:29;;;;;;;5.00;4.34;;;;;;;13.43;88.13;99565.81;2022750;80;20198;-81
2021/07/10 02:38:32;;;;;;;6.21;4.19;;;;;;;13.41;88.01;99561.50;2022318;80;20168;-80
2021/07/10 02:41:34;;;;;;;4.96;3.83;;;;;;;13.36;87.98;99555.50;2022276;80;20181;-81
2021/07/10 02:44:37;;;;;;;7.16;3.60;;;;;;;13.31;87.95;99550.34;2021672;80;20293;-81
2021/07/10 02:47:40;;;;;;;5.16;3.61;;;;;;;13.29;87.80;99549.50;2022085;78;25719;-81
2021/07/10 02:50:43;;;;;;;4.01;3.51;;;;;;;13.26;87.82;99549.50;2021404;80;20176;-81
2021/07/10 02:53:45;;;;;;;3.65;3.11;;;;;;;13.24;87.89;99552.16;2026167;80;20216;-81
2021/07/10 02:56:48;;;;;;;3.40;2.97;;;;;;;13.22;87.98;99553.06;2023279;80;20194;-80
2021/07/10 02:59:51;;;;;;;4.01;3.65;;;;;;;13.20;88.01;99549.59;2022965;80;20176;-81
2021/07/10 03:02:55;;;;;;;3.99;3.51;;;;;;;13.19;88.09;99551.34;2020579;77;21879;-81
2021/07/10 03:05:57;;;;;;;5.43;3.78;;;;;;;13.15;88.24;99547.03;2020240;80;20198;-81
2021/07/10 03:09:00;;;;;;;3.80;3.49;;;;;;;13.14;88.08;99547.91;2023965;80;20176;-81
2021/07/10 03:12:05;;;;;;;6.34;4.95;;;;;;;13.11;88.03;99545.34;2022907;80;20237;-80
2021/07/10 03:15:10;;;;;;;5.93;5.24;;;;;;;13.10;88.18;99545.34;2021329;80;20188;-81
2021/07/10 03:18:13;;;;;;;6.51;5.22;;;;;;;13.09;88.78;99539.25;2020853;80;20809;-81
2021/07/10 03:21:16;;;;;;;7.14;5.38;;;;;;;13.08;88.85;99540.16;2022904;80;20215;-82
2021/07/10 03:24:19;;;;;;;5.54;5.06;;;;;;;13.09;88.76;99538.41;2023111;80;20239;-81
2021/07/10 03:27:23;;;;;;;5.60;4.89;;;;;;;13.08;88.85;99532.31;2023821;80;20157;-82
2021/07/10 03:30:28;;;;;;;5.40;4.72;;;;;;;13.06;88.68;99525.41;2022730;80;20196;-81
2021/07/10 03:33:35;;;;;;;5.26;4.69;;;;;;;13.07;88.55;99534.94;2022366;80;20315;-81
2021/07/10 03:36:38;;;;;;;6.09;4.45;;;;;;;13.07;88.54;99538.41;2024593;80;20629;-82
2021/07/10 03:39:41;;;;;;;8.69;4.40;;;;;;;13.04;88.48;99538.47;2027849;80;20172;-82
2021/07/10 03:42:45;;;;;;;4.16;3.86;;;;;;;13.05;88.40;99528.91;2025927;80;20188;-81
2021/07/10 03:45:48;;;;;;;4.61;4.19;;;;;;;13.01;88.28;99530.69;2021077;80;20168;-80
2021/07/10 03:48:55;;;;;;;4.76;4.03;;;;;;;13.00;88.15;99534.19;2024074;80;20172;-81
2021/07/10 03:51:58;;;;;;;4.88;4.31;;;;;;;13.01;88.25;99528.09;2022057;80;20201;-81
2021/07/10 03:55:04;;;;;;;4.95;4.46;;;;;;;13.00;88.59;99522.00;2022325;80;20187;-81
2021/07/10 03:58:07;;;;;;;7.15;3.89;;;;;;;12.99;88.56;99520.28;2022603;80;20176;-81
2021/07/10 04:01:10;;;;;;;5.65;4.44;;;;;;;13.01;88.36;99528.09;2018128;78;226416;-83
2021/07/10 04:04:13;;;;;;;4.72;4.04;;;;;;;13.00;88.69;99522.00;2018807;80;20181;-81
2021/07/10 04:07:17;;;;;;;3.72;3.42;;;;;;;13.00;88.69;99519.41;2017007;80;20196;-82
2021/07/10 04:10:23;;;;;;;6.38;3.78;;;;;;;13.01;88.41;99515.03;2020404;80;20231;-82
2021/07/10 04:13:26;;;;;;;4.44;4.11;;;;;;;13.02;88.26;99515.03;2016854;80;20205;-81
2021/07/10 04:16:29;;;;;;;6.16;4.34;;;;;;;13.05;88.31;99518.47;2018083;78;233480;-80
2021/07/10 04:19:32;;;;;;;7.38;4.55;;;;;;;13.09;88.19;99512.34;2022131;80;20224;-82
2021/07/10 04:22:35;;;;;;;5.03;4.30;;;;;;;13.13;88.21;99517.50;2021277;80;20180;-80
2021/07/10 04:25:38;;;;;;;4.06;3.51;;;;;;;13.16;88.30;99516.59;2021112;80;20211;-81
2021/07/10 04:28:41;;;;;;;5.15;4.69;;;;;;;13.16;88.32;99521.81;2022504;80;20288;-80
2021/07/10 04:31:43;;;;;;;4.97;4.41;;;;;;;13.20;88.41;99518.31;2019365;80;20172;-80
2021/07/10 04:34:46;;;;;;;4.34;4.04;;;;;;;13.21;88.48;99515.69;2020014;80;20264;-81
2021/07/10 04:37:52;;;;;;;6.43;4.14;;;;;;;13.23;88.35;99508.69;2020700;80;20196;-80
2021/07/10 04:40:55;;;;;;;4.05;3.54;;;;;;;13.26;88.46;99513.00;2018800;80;20164;-80
2021/07/10 04:43:58;;;;;;;4.32;3.55;;;;;;;13.27;88.29;99517.34;2021610;80;20207;-81
2021/07/10 04:47:01;;;;;;;5.97;3.80;;;;;;;13.28;88.44;99521.66;2021544;78;27400;-82
2021/07/10 04:50:05;;;;;;;3.95;3.59;;;;;;;13.29;88.51;99524.28;2021651;80;20185;-81
2021/07/10 04:53:07;;;;;;;3.28;3.05;;;;;;;13.36;88.57;99513.75;2020701;80;20242;-82
2021/07/10 04:56:10;;;;;;;5.21;2.91;;;;;;;13.46;88.44;99521.41;2016883;80;20197;-82
2021/07/10 04:59:12;;;;;;;3.81;3.47;;;;;;;13.60;88.43;99522.09;2019435;80;20185;-80
2021/07/10 05:02:15;;;;;;;4.81;3.86;;;;;;;13.74;88.48;99524.50;2013706;78;22650;-80
2021/07/10 05:05:18;;;;;;;6.04;4.15;;;;;;;13.84;88.56;99520.88;2016044;80;20208;-82
2021/07/10 05:08:21;;;;;;;3.44;3.16;;;;;;;14.01;88.49;99527.59;2018637;80;20232;-82
2021/07/10 05:11:23;;;;;;;7.55;4.56;;;;;;;14.15;88.13;99531.66;2018763;80;20177;-82
2021/07/10 05:14:32;;;;;;;7.17;3.47;;;;;;;14.20;87.38;99527.25;2018480;80;20189;-82
2021/07/10 05:17:34;;;;;;;4.78;3.65;;;;;;;14.27;87.07;99537.59;2025058;77;23685;-82
2021/07/10 05:20:40;;;;;;;4.89;4.25;;;;;;;14.38;86.70;99538.28;2023672;80;20180;-81
2021/07/10 05:23:44;;;;;;;4.79;3.59;;;;;;;14.61;86.16;99545.72;2024363;80;20241;-81
2021/07/10 05:26:47;;;;;;;4.51;3.83;;;;;;;14.81;85.78;99541.00;2022334;80;20291;-81
2021/07/10 05:29:49;;;;;;;4.75;3.21;;;;;;;15.05;85.24;99532.66;2028117;80;20188;-82
2021/07/10 05:32:52;;;;;;;4.49;3.56;;;;;;;15.40;84.36;99529.28;2008739;80;973510;-82
2021/07/10 05:35:59;;;;;;;7.24;3.44;;;;;;;15.87;83.07;99526.53;2013720;81;20229;-82
2021/07/10 05:39:03;;;;;;;5.34;3.39;;;;;;;16.23;81.54;99519.53;2014836;81;20173;-82
2021/07/10 05:42:09;;;;;;;7.16;3.54;;;;;;;16.57;79.87;99522.16;2014510;81;20174;-82
2021/07/10 05:45:17;;;;;;;3.66;3.36;;;;;;;17.08;77.91;99524.28;2011346;81;20162;-82
2021/07/10 05:48:21;;;;;;;3.97;3.54;;;;;;;17.51;76.32;99523.84;2010937;81;20192;-81
2021/07/10 05:51:24;;;;;;;5.24;3.80;;;;;;;17.73;75.57;99530.19;2010921;81;20186;-81
2021/07/10 05:54:28;;;;;;;4.16;3.67;;;;;;;18.21;73.88;99519.00;2011470;81;20347;-81
2021/07/10 05:57:32;;;;;;;5.22;3.86;;;;;;;18.41;73.00;99527.06;2009555;81;20177;-82
2021/07/10 06:00:36;;;;;;;6.70;3.96;;;;;;;18.60;72.46;99519.41;2003226;80;795248;-82
2021/07/10 06:03:38;;;;;;;6.04;3.89;;;;;;;18.96;71.16;99519.03;2011491;81;20215;-82
2021/07/10 06:06:43;;;;;;;5.24;4.13;;;;;;;19.28;69.96;99523.13;2012490;81;20158;-81
2021/07/10 06:09:45;;;;;;;3.67;3.38;;;;;;;19.61;68.81;99526.28;2011101;81;20210;-81
2021/07/10 06:12:49;;;;;;;3.89;3.63;;;;;;;20.03;67.18;99521.06;2013859;81;20213;-82
2021/07/10 06:15:52;;;;;;;5.46;3.58;;;;;;;20.15;66.22;99520.56;2011529;78;28501;-81
2021/07/10 06:18:54;;;;;;;5.70;3.55;;;;;;;20.40;66.04;99527.44;2011451;81;20271;-80
2021/07/10 06:21:58;;;;;;;3.95;2.99;;;;;;;20.53;65.85;99515.47;2009886;81;20211;-81
2021/07/10 06:25:04;;;;;;;3.45;3.15;;;;;;;20.74;65.19;99517.19;2014320;81;20218;-80
2021/07/10 06:28:07;;;;;;;4.89;3.22;;;;;;;20.84;64.89;99520.28;2011375;81;20169;-81
2021/07/10 06:31:10;;;;;;;6.14;3.24;;;;;;;20.88;64.70;99529.78;2012135;81;20205;-80
2021/07/10 06:34:12;;;;;;;3.94;2.88;;;;;;;21.43;63.54;99516.72;2010298;81;20174;-80
2021/07/10 06:37:15;;;;;;;4.03;2.89;;;;;;;21.69;62.67;99513.69;2005847;81;20167;-80
2021/07/10 06:40:19;;;;;;;3.13;2.80;;;;;;;21.65;63.01;99506.84;2006835;81;20179;-80
2021/07/10 06:43:21;;;;;;;3.69;2.84;;;;;;;21.52;63.83;99510.13;2004325;81;20645;-80
2021/07/10 06:46:24;;;;;;;2.94;2.64;;;;;;;21.64;64.08;99506.94;2005361;81;20190;-80
2021/07/10 06:49:27;;;;;;;5.51;2.76;;;;;;;22.00;62.57;99499.00;2005275;81;20292;-80
2021/07/10 06:52:30;;;;;;;3.26;2.20;;;;;;;21.95;62.38;99506.31;2002523;81;20875;-80
2021/07/10 06:55:33;;;;;;;5.07;2.55;;;;;;;21.50;62.58;99504.06;2004468;81;20190;-80
2021/07/10 06:58:36;;;;;;;2.95;2.66;;;;;;;21.56;63.83;99501.16;2001444;81;20373;-81
2021/07/10 07:01:39;;;;;;;2.84;2.34;;;;;;;21.68;63.07;99503.19;2002604;78;20209;-81
2021/07/10 07:04:42;;;;;;;4.91;3.06;;;;;;;21.64;63.08;99501.63;2009265;81;20228;-81
2021/07/10 07:07:46;;;;;;;2.54;2.34;;;;;;;21.60;63.12;99508.88;2008336;81;20173;-81
2021/07/10 07:10:49;;;;;;;2.97;2.60;;;;;;;21.64;63.98;99502.50;2008300;81;20190;-81
2021/07/10 07:13:51;;;;;;;5.06;2.61;;;;;;;21.97;63.16;99497.38;2011129;81;20178;-81
2021/07/10 07:16:58;;;;;;;4.80;2.67;;;;;;;22.20;61.71;99496.25;2004565;78;20469;-81
2021/07/10 07:20:03;;;;;;;4.31;2.36;;;;;;;22.27;61.97;99497.66;2004822;81;20224;-83
2021/07/10 07:23:06;;;;;;;3.21;2.09;;;;;;;22.49;61.84;99485.97;2004948;81;20252;-83
2021/07/10 07:26:08;;;;;;;5.21;2.50;;;;;;;22.83;61.45;99478.00;2006461;81;20192;-83
2021/07/10 07:29:11;;;;;;;4.01;2.53;;;;;;;23.02;60.65;99479.69;2006333;81;20280;-83
2021/07/10 07:32:14;;;;;;;3.33;2.22;;;;;;;23.20;59.92;99471.59;2006394;78;28119;-83
2021/07/10 07:35:17;;;;;;;2.24;2.10;;;;;;;23.50;60.16;99484.06;2011261;81;20199;-83
2021/07/10 07:38:20;;;;;;;2.17;1.71;;;;;;;23.65;58.79;99469.13;2012065;81;20231;-80
2021/07/10 07:41:23;;;;;;;5.40;2.40;;;;;;;23.68;58.75;99468.94;2013838;81;20235;-82
2021/07/10 07:44:30;;;;;;;5.40;2.17;;;;;;;23.81;57.45;99472.63;2011109;80;20214;-82
2021/07/10 07:47:33;;;;;;;2.70;2.34;;;;;;;23.87;56.35;99460.78;2010136;78;20340;-82
2021/07/10 07:50:35;;;;;;;3.26;1.85;;;;;;;24.02;56.09;99463.41;2010947;81;20240;-82
2021/07/10 07:53:38;;;;;;;3.11;1.90;;;;;;;24.21;56.67;99459.66;2009730;81;20906;-81
2021/07/10 07:56:41;;;;;;;2.53;1.76;;;;;;;24.42;56.70;99453.13;2010960;81;20200;-80
2021/07/10 07:59:43;;;;;;;2.14;1.69;;;;;;;24.39;54.75;99450.66;2013024;81;20227;-81
2021/07/10 08:02:47;;;;;;;2.45;2.00;;;;;;;24.42;55.51;99450.50;2020889;80;30999;-85
2021/07/10 08:05:49;;;;;;;4.54;2.03;;;;;;;24.32;55.45;99454.63;2010897;81;20169;-81
2021/07/10 08:08:52;;;;;;;1.91;1.81;;;;;;;24.29;55.24;99452.16;2007581;81;20198;-82
2021/07/10 08:11:56;;;;;;;4.86;1.83;;;;;;;24.41;55.55;99451.41;2012539;81;20186;-81
2021/07/10 08:14:59;;;;;;;3.17;2.10;;;;;;;24.49;56.26;99450.97;2015599;81;20195;-82
2021/07/10 08:18:02;;;;;;;3.49;1.84;;;;;;;24.48;55.30;99455.41;2013954;78;22063;-82
2021/07/10 08:21:07;;;;;;;3.65;2.00;;;;;;;24.52;55.32;99445.47;2014706;81;20195;-81
2021/07/10 08:24:10;;;;;;;3.47;1.70;;;;;;;24.53;56.35;99448.03;2012206;81;21229;-77
2021/07/10 08:27:15;;;;;;;3.45;1.88;;;;;;;24.59;55.55;99454.75;2002334;81;20170;-77
2021/07/10 08:30:18;;;;;;;3.89;1.55;;;;;;;24.59;53.94;99450.28;2001528;81;20186;-77
2021/07/10 08:33:21;;;;;;;1.70;1.60;;;;;;;24.69;55.20;99450.59;2001689;78;120080;-75
2021/07/10 08:36:24;;;;;;;2.29;2.11;;;;;;;24.65;54.32;99446.44;2006201;80;20193;-77
2021/07/10 08:39:26;;;;;;;3.70;1.88;;;;;;;24.54;54.29;99436.44;2006057;80;20643;-77
2021/07/10 08:42:29;;;;;;;2.34;1.48;;;;;;;24.67;54.63;99439.22;2007151;80;20245;-77
2021/07/10 08:45:34;;;;;;;2.86;1.31;;;;;;;24.71;54.64;99427.44;2004634;80;21486;-77
2021/07/10 08:48:37;;;;;;;1.98;1.50;;;;;;;24.92;55.01;99427.91;2000599;81;20670;-77
2021/07/10 08:51:44;;;;;;;2.91;1.40;;;;;;;25.04;53.15;99431.63;2001267;81;20185;-77
2021/07/10 08:54:47;;;;;;;2.53;1.35;;;;;;;25.02;51.40;99430.88;2002588;81;20170;-78
2021/07/10 08:57:52;;;;;;;2.97;1.30;;;;;;;25.15;50.54;99414.06;2001987;81;20166;-77
2021/07/10 09:00:55;;;;;;;3.80;1.21;;;;;;;25.39;51.29;99406.31;2002616;78;24160;-77
2021/07/10 09:03:57;;;;;;;1.52;1.40;;;;;;;25.33;50.88;99412.03;2007403;80;20246;-77
2021/07/10 09:07:00;;;;;;;6.13;1.45;;;;;;;25.27;51.78;99415.94;2005935;80;20234;-77
2021/07/10 09:10:04;;;;;;;1.61;1.24;;;;;;;25.33;52.22;99417.34;2007470;80;20173;-77
2021/07/10 09:13:07;;;;;;;2.36;1.20;;;;;;;25.37;50.44;99412.69;2007159;80;20181;-77
2021/07/10 09:16:14;;;;;;;4.16;1.20;;;;;;;25.44;50.31;99416.66;2004340;78;74650;-77
2021/07/10 09:19:24;;;;;;;1.21;1.01;;;;;;;25.58;48.82;99411.28;2003082;81;20217;-77
2021/07/10 09:22:29;;;;;;;1.48;1.10;;;;;;;25.84;48.91;99410.44;2001614;81;20166;-77
2021/07/10 09:25:33;;;;;;;2.10;1.13;;;;;;;26.00;47.55;99404.94;1999966;81;21152;-77
2021/07/10 09:28:35;;;;;;;1.24;1.09;;;;;;;26.24;47.24;99399.75;2000634;81;20181;-77
2021/07/10 09:31:41;;;;;;;0.93;0.90;;;;;;;26.54;46.20;99394.13;2002750;78;20826;-77
2021/07/10 09:34:48;;;;;;;1.83;0.80;;;;;;;26.27;42.69;99404.03;2005693;80;20783;-78
2021/07/10 09:37:54;;;;;;;1.44;0.90;;;;;;;26.29;45.04;99396.78;2006229;80;20247;-77
2021/07/10 09:41:09;;;;;;;2.49;0.90;;;;;;;26.21;44.55;99399.94;2005554;80;20260;-77
2021/07/10 09:44:14;;;;;;;1.95;0.98;;;;;;;26.15;45.17;99393.25;2006283;80;20342;-77
2021/07/10 09:47:31;;;;;;;1.08;0.90;;;;;;;26.17;44.07;99387.81;2005350;78;23585;-77
2021/07/10 09:50:34;;;;;;;1.81;0.79;;;;;;;26.38;45.99;99381.03;2006557;80;20299;-78
2021/07/10 09:53:36;;;;;;;1.51;0.80;;;;;;;26.68;46.06;99371.88;2005691;80;20182;-76
2021/07/10 09:57:00;;;;;;;2.44;0.70;;;;;;;26.99;45.45;99370.53;2005424;80;20196;-77
2021/07/10 10:00:10;;;;;;;2.54;0.80;;;;;;;27.26;44.51;99365.88;2005502;80;20269;-77
2021/07/10 10:03:31;;;;;;;2.92;0.90;;;;;;;27.44;43.29;99365.47;2005903;77;20905;-79
2021/07/10 10:06:35;;;;;;;0.85;0.79;;;;;;;27.43;43.80;99366.44;2006316;80;20194;-79
2021/07/10 10:09:37;;;;;;;2.58;0.90;;;;;;;26.95;41.24;99361.91;2006365;80;20197;-79
2021/07/10 10:12:40;;;;;;;0.94;0.70;;;;;;;26.63;43.26;99360.69;2008011;80;20203;-79
2021/07/10 10:15:51;;;;;;;1.77;0.81;;;;;;;26.32;43.71;99356.63;2008729;78;24809;-79
2021/07/10 10:18:54;;;;;;;1.46;0.80;;;;;;;26.24;42.64;99356.31;2008417;80;20169;-79
2021/07/10 10:22:00;;;;;;;1.24;0.85;;;;;;;26.49;42.47;99351.00;2009020;80;20198;-79
2021/07/10 10:25:03;;;;;;;1.27;0.95;;;;;;;26.52;41.03;99353.44;2008130;80;20274;-79
2021/07/10 10:28:18;;;;;;;1.63;0.75;;;;;;;26.49;42.54;99341.19;2008928;80;20235;-78
2021/07/10 10:31:22;;;;;;;1.30;0.71;;;;;;;26.96;43.55;99331.63;2003977;78;23457;-79
2021/07/10 10:34:26;;;;;;;1.06;0.80;;;;;;;27.40;42.61;99339.03;2002369;81;20944;-79
2021/07/10 10:37:29;;;;;;;0.95;0.80;;;;;;;27.71;42.12;99326.09;2002754;81;20174;-80
2021/07/10 10:40:33;;;;;;;0.88;0.60;;;;;;;27.71;40.82;99335.91;2001842;81;20957;-80
2021/07/10 10:43:36;;;;;;;0.99;0.80;;;;;;;27.33;41.02;99335.13;2002833;81;20299;-79
2021/07/10 10:46:54;;;;;;;1.05;0.70;;;;;;;27.06;40.98;99331.81;2003769;77;20193;-79
2021/07/10 10:49:57;;;;;;;2.10;0.80;;;;;;;26.95;43.39;99324.59;2006998;80;20166;-80
2021/07/10 10:53:00;;;;;;;1.50;1.00;;;;;;;26.82;43.25;99323.78;2007576;80;20181;-80
2021/07/10 10:56:03;;;;;;;1.00;0.77;;;;;;;26.52;42.54;99320.63;2007743;80;20234;-79
2021/07/10 10:59:27;;;;;;;6.26;0.80;;;;;;;26.47;44.29;99321.81;2008484;80;20173;-80
2021/07/10 11:02:30;;;;;;;1.54;0.93;;;;;;;26.43;44.04;99314.16;2002586;78;22080;-80
2021/07/10 11:05:35;;;;;;;1.54;1.02;;;;;;;26.34;42.23;99304.13;2001897;81;20408;-80
2021/07/10 11:08:50;;;;;;;0.80;0.80;;;;;;;26.53;43.86;99301.03;2002549;81;21004;-79
2021/07/10 11:11:52;;;;;;;2.00;0.80;;;;;;;27.10;44.27;99296.81;2001026;81;20207;-80
2021/07/10 11:14:55;;;;;;;2.26;0.79;;;;;;;27.52;41.80;99299.06;2001795;81;20802;-81
2021/07/10 11:18:03;;;;;;;1.34;0.73;;;;;;;27.68;42.62;99289.81;1999981;78;22063;-80
2021/07/10 11:21:06;;;;;;;1.58;0.70;;;;;;;27.86;42.34;99295.56;2001553;81;20660;-79
2021/07/10 11:27:22;;;;;;;1.52;0.70;;;;;;;28.34;39.48;99295.38;2004450;80;20329;-84
2021/07/10 11:30:24;;;;;;;0.70;0.65;;;;;;;28.72;39.94;99296.81;2000131;80;20182;-77
2021/07/10 11:33:53;;;;;;;1.54;0.65;;;;;;;28.90;38.13;99295.34;2007549;80;20275;-80
2021/07/10 11:36:59;;;;;;;1.11;0.64;;;;;;;28.75;37.85;99283.22;2005332;80;20213;-81
2021/07/10 11:40:06;;;;;;;1.45;0.61;;;;;;;28.42;37.08;99276.94;2007002;80;20703;-80
2021/07/10 11:43:10;;;;;;;3.28;0.63;;;;;;;28.31;37.87;99276.94;2007055;80;20209;-81
2021/07/10 11:46:13;;;;;;;0.80;0.80;;;;;;;28.38;39.07;99267.47;2007539;78;23178;-81
2021/07/10 11:49:40;;;;;;;3.00;0.69;;;;;;;28.14;37.71;99261.38;2006100;80;20285;-79
2021/07/10 11:53:07;;;;;;;0.50;0.49;;;;;;;27.81;38.57;99252.34;2005365;80;20189;-80
2021/07/10 11:56:09;;;;;;;0.60;0.60;;;;;;;27.99;39.30;99250.06;2005791;80;20169;-79
2021/07/10 11:59:16;;;;;;;2.78;0.60;;;;;;;28.03;37.28;99254.22;2005470;80;20189;-79
2021/07/10 12:02:22;;;;;;;1.84;0.60;;;;;;;28.27;39.31;99248.78;2002235;78;20181;-80
2021/07/10 12:05:25;;;;;;;2.54;0.55;;;;;;;28.67;36.67;99251.75;2002030;81;20755;-74
2021/07/10 12:08:29;;;;;;;1.15;0.51;;;;;;;28.92;36.53;99242.63;2001785;81;20173;-86
2021/07/10 12:11:32;;;;;;;0.77;0.40;;;;;;;29.15;36.32;99232.69;2001803;81;20166;-86
2021/07/10 12:14:36;;;;;;;1.75;0.70;;;;;;;29.01;34.74;99231.16;2002910;81;20193;-82
2021/07/10 12:17:43;;;;;;;10.19;0.57;;;;;;;29.17;35.17;99222.72;2006265;78;30164;-88
2021/07/10 12:20:50;;;;;;;1.75;0.40;;;;;;;29.22;35.02;99225.84;2007097;80;20346;-85
2021/07/10 12:23:55;;;;;;;0.84;0.50;;;;;;;29.18;35.41;99225.25;2005408;80;20169;-82
2021/07/10 12:27:16;;;;;;;0.57;0.57;;;;;;;28.72;36.29;99228.16;2006832;80;20766;-80
2021/07/10 12:30:18;;;;;;;0.50;0.50;;;;;;;28.26;35.98;99212.38;2005102;80;20795;-81
2021/07/10 12:33:38;;;;;;;0.98;0.50;;;;;;;27.83;36.98;99217.53;1999905;78;22086;-80
2021/07/10 12:36:45;;;;;;;0.44;0.38;;;;;;;28.09;37.26;99210.16;2001665;81;20188;-81
2021/07/10 12:39:47;;;;;;;0.59;0.50;;;;;;;28.21;35.33;99199.34;2001771;81;20197;-82
2021/07/10 12:42:55;;;;;;;1.11;0.60;;;;;;;28.17;35.71;99192.53;2000652;80;20265;-80
2021/07/10 12:46:01;;;;;;;1.09;0.50;;;;;;;27.95;36.80;99196.06;1998872;78;146749;-78
2021/07/10 12:49:08;;;;;;;0.77;0.50;;;;;;;28.12;36.54;99188.56;1997181;81;20365;-80
2021/07/10 12:52:26;;;;;;;0.73;0.50;;;;;;;28.49;36.87;99181.13;2000892;81;20362;-77
2021/07/10 12:55:38;;;;;;;2.14;0.59;;;;;;;28.88;35.76;99175.19;2000567;81;20316;-78
2021/07/10 12:58:41;;;;;;;2.29;0.50;;;;;;;29.17;37.14;99178.09;1999825;81;20170;-79
2021/07/10 13:01:48;;;;;;;1.29;0.50;;;;;;;29.42;35.90;99174.16;2001193;78;94324;-80
2021/07/10 13:04:56;;;;;;;1.83;0.59;;;;;;;29.10;35.27;99171.56;2005786;80;20902;-80
2021/07/10 13:08:13;;;;;;;0.69;0.50;;;;;;;28.58;35.10;99170.53;2005308;80;20231;-82
2021/07/10 13:11:16;;;;;;;0.48;0.48;;;;;;;28.40;38.75;99179.22;2007148;80;20189;-79
2021/07/10 13:14:21;;;;;;;1.66;0.51;;;;;;;28.48;36.22;99153.56;2007581;80;20211;-80
2021/07/10 13:17:24;;;;;;;0.47;0.47;;;;;;;28.82;37.04;99153.44;2001683;78;22328;-79
2021/07/10 13:20:30;;;;;;;1.34;0.65;;;;;;;29.19;36.67;99152.06;2002065;81;20668;-79
2021/07/10 13:23:35;;;;;;;0.40;0.40;;;;;;;29.54;35.38;99158.06;2002386;81;20292;-80
2021/07/10 13:26:40;;;;;;;2.26;0.59;;;;;;;29.61;34.22;99167.25;2001558;80;20260;-81
2021/07/10 13:29:42;;;;;;;0.64;0.59;;;;;;;29.23;34.51;99155.31;2002296;81;20196;-82
2021/07/10 13:32:56;;;;;;;0.99;0.50;;;;;;;29.10;35.46;99152.84;2004080;77;20189;-79
2021/07/10 13:36:10;;;;;;;0.95;0.55;;;;;;;29.08;35.56;99148.59;2001647;80;20186;-79
2021/07/10 13:39:25;;;;;;;0.69;0.57;;;;;;;29.30;34.96;99132.44;2000692;81;20287;-79
2021/07/10 13:42:28;;;;;;;1.74;0.59;;;;;;;29.36;35.17;99134.56;2002300;80;20194;-79
2021/07/10 13:45:30;;;;;;;0.60;0.50;;;;;;;29.51;35.15;99135.13;2001150;78;21519;-83
2021/07/10 13:48:33;;;;;;;0.50;0.32;;;;;;;29.16;32.20;99138.09;1996603;81;20222;-82
2021/07/10 13:51:36;;;;;;;0.57;0.32;;;;;;;28.78;33.42;99130.63;1998148;81;20171;-82
2021/07/10 13:54:53;;;;;;;0.40;0.40;;;;;;;28.67;32.97;99125.31;1997432;81;20175;-83
2021/07/10 13:57:56;;;;;;;0.40;0.40;;;;;;;28.62;34.78;99119.50;1997451;81;20204;-80
2021/07/10 14:00:59;;;;;;;1.11;0.40;;;;;;;28.56;34.61;99123.56;1998302;78;22437;-80
2021/07/10 14:04:12;;;;;;;0.80;0.50;;;;;;;28.23;35.22;99130.66;2002579;81;20324;-79
2021/07/10 14:07:15;;;;;;;1.21;0.50;;;;;;;27.83;35.35;99117.00;2002378;81;20158;-79
2021/07/10 14:10:22;;;;;;;1.65;0.50;;;;;;;27.63;36.46;99117.72;2001990;81;20611;-79
2021/07/10 14:13:30;;;;;;;0.88;0.40;;;;;;;27.82;37.86;99112.59;2002555;81;21053;-79
2021/07/10 14:16:33;;;;;;;0.96;0.50;;;;;;;28.16;35.49;99102.72;1998895;79;31343;-81
2021/07/10 14:19:36;;;;;;;2.22;0.43;;;;;;;28.54;37.25;99096.94;1996105;81;20216;-82
2021/07/10 14:22:40;;;;;;;0.70;0.44;;;;;;;28.93;35.23;99099.97;1996678;81;20226;-80
2021/07/10 14:25:43;;;;;;;0.41;0.40;;;;;;;29.09;35.20;99092.34;1995973;81;20234;-80
2021/07/10 14:28:45;;;;;;;0.49;0.30;;;;;;;29.03;33.06;99089.31;1997209;81;20163;-83
2021/07/10 14:31:48;;;;;;;0.47;0.39;;;;;;;29.17;34.70;99089.00;1997250;78;113859;-82
2021/07/10 14:34:51;;;;;;;0.30;0.30;;;;;;;29.38;34.58;99078.25;2004339;80;20205;-82